createdAt,value
2023-04-27T11:05:00.245Z,45
2023-04-27T11:10:00.298Z,43
2023-04-27T11:15:00.281Z,44
2023-04-27T11:20:00.265Z,42
2023-04-27T11:25:00.245Z,47
2023-04-27T11:30:00.256Z,43
2023-04-27T11:35:00.256Z,42
2023-04-27T11:40:00.216Z,44
2023-04-27T11:45:00.235Z,46
2023-04-27T11:50:00.240Z,43
2023-04-27T11:55:00.293Z,44
2023-04-27T12:00:00.580Z,43
2023-04-27T12:05:00.363Z,40
2023-04-27T12:10:01.180Z,44
2023-04-27T12:15:06.606Z,42
2023-04-27T12:20:00.281Z,44
2023-04-27T12:25:00.298Z,43
2023-04-27T12:30:00.230Z,43
2023-04-27T12:35:00.235Z,42
2023-04-27T12:40:00.339Z,44
2023-04-27T12:45:00.257Z,42
2023-04-27T12:50:00.271Z,43
2023-04-27T12:55:00.234Z,42
2023-04-27T13:00:01.894Z,40
2023-04-27T13:05:00.341Z,40
2023-04-27T13:10:00.264Z,41
2023-04-27T13:15:00.269Z,43
2023-04-27T13:20:00.248Z,39
2023-04-27T13:25:00.238Z,44
2023-04-27T13:30:00.251Z,43
2023-04-27T13:35:00.224Z,42
2023-04-27T13:40:00.235Z,43
2023-04-27T13:45:00.282Z,43
2023-04-27T13:50:00.239Z,41
2023-04-27T13:55:00.256Z,40
2023-04-27T14:00:00.251Z,42
2023-04-27T14:05:00.286Z,39
2023-04-27T14:10:00.231Z,40
2023-04-27T14:15:00.228Z,41
2023-04-27T14:20:00.267Z,42
2023-04-27T14:25:00.270Z,42
2023-04-27T14:30:00.274Z,41
2023-04-27T14:35:00.275Z,44
2023-04-27T14:40:00.247Z,41
2023-04-27T14:45:00.240Z,42
2023-04-27T14:50:00.262Z,42
2023-04-27T14:55:00.231Z,40
2023-04-27T15:00:00.366Z,42
2023-04-27T15:05:00.596Z,43
2023-04-27T15:10:00.279Z,41
2023-04-27T15:15:00.228Z,40
2023-04-27T15:20:00.239Z,41
2023-04-27T15:25:00.277Z,41
2023-04-27T15:30:00.306Z,43
2023-04-27T15:35:00.263Z,40
2023-04-27T15:40:00.237Z,41
2023-04-27T15:45:00.256Z,42
2023-04-27T15:50:00.244Z,40
2023-04-27T15:55:00.239Z,41
2023-04-27T16:00:00.301Z,40
2023-04-27T16:05:00.262Z,42
2023-04-27T16:10:00.389Z,39
2023-04-27T16:15:00.278Z,41
2023-04-27T16:20:00.346Z,41
2023-04-27T16:25:00.337Z,39
2023-04-27T16:30:00.219Z,41
2023-04-27T16:35:00.217Z,43
2023-04-27T16:40:00.367Z,42
2023-04-27T16:45:00.421Z,42
2023-04-27T16:50:00.245Z,42
2023-04-27T16:55:00.238Z,43
2023-04-27T17:00:00.433Z,42
2023-04-27T17:05:00.290Z,43
2023-04-27T17:10:00.374Z,45
2023-04-27T17:15:00.247Z,44
2023-04-27T17:20:00.368Z,44
2023-04-27T17:25:00.241Z,45
2023-04-27T17:30:00.257Z,46
2023-04-27T17:35:00.316Z,46
2023-04-27T17:40:00.249Z,45
2023-04-27T17:45:00.219Z,45
2023-04-27T17:50:00.301Z,46
2023-04-27T17:55:00.221Z,46
2023-04-27T18:00:00.248Z,46
2023-04-27T18:25:00.813Z,49
2023-04-27T18:30:00.793Z,50
2023-04-27T18:35:00.986Z,50
2023-04-27T18:40:00.746Z,50
2023-04-27T18:45:01.073Z,51
2023-04-27T18:50:00.658Z,51
2023-04-27T18:55:00.629Z,52
2023-04-27T19:00:00.768Z,53
2023-04-27T19:10:00.579Z,54
2023-04-27T19:15:00.582Z,54
2023-04-27T19:20:00.689Z,54
2023-04-27T19:25:00.655Z,55
2023-04-27T19:30:00.749Z,55
2023-04-27T19:35:00.614Z,55
2023-04-27T19:40:00.590Z,55
2023-04-27T19:45:00.631Z,58
2023-04-27T19:50:00.654Z,59
2023-04-27T19:55:00.583Z,59
2023-04-27T20:00:00.669Z,61
2023-04-27T20:05:01.075Z,62
2023-04-27T20:10:00.676Z,61
2023-04-27T20:15:00.655Z,62
2023-04-27T20:20:00.740Z,62
2023-04-27T20:25:00.702Z,62
2023-04-27T20:30:00.614Z,62
2023-04-27T20:35:02.156Z,62
2023-04-27T20:40:00.597Z,61
2023-04-27T20:45:00.574Z,61
2023-04-27T20:50:00.651Z,61
2023-04-27T20:55:00.618Z,61
2023-04-27T21:00:00.691Z,60
2023-04-27T21:05:00.755Z,61
2023-04-27T21:10:00.669Z,61
2023-04-27T21:15:00.696Z,61
2023-04-27T21:20:00.596Z,61
2023-04-27T21:25:00.609Z,60
2023-04-27T21:30:00.655Z,61
2023-04-27T21:35:00.601Z,62
2023-04-27T21:40:00.647Z,62
2023-04-27T21:45:00.613Z,60
2023-04-27T21:50:00.584Z,61
2023-04-27T21:55:00.631Z,61
2023-04-27T22:00:00.690Z,61
2023-04-27T22:05:00.620Z,61
2023-04-27T22:10:00.690Z,61
2023-04-27T22:15:00.694Z,62
2023-04-27T22:20:00.724Z,62
2023-04-27T22:25:00.574Z,61
2023-04-27T22:30:00.610Z,61
2023-04-27T22:35:00.717Z,61
2023-04-27T22:40:00.637Z,61
2023-04-27T22:45:00.676Z,62
2023-04-27T22:50:00.624Z,61
2023-04-27T22:55:00.758Z,62
2023-04-27T23:00:00.603Z,61
2023-04-27T23:05:00.670Z,61
2023-04-27T23:10:00.655Z,62
2023-04-27T23:15:00.666Z,62
2023-04-27T23:20:00.692Z,62
2023-04-27T23:25:00.648Z,63
2023-04-27T23:30:00.677Z,63
2023-04-27T23:35:00.739Z,63
2023-04-27T23:40:00.641Z,63
2023-04-27T23:45:00.785Z,63
2023-04-27T23:50:00.725Z,65
2023-04-27T23:55:00.667Z,65
